Latest Coastal Weather Observations for Pirlangimpi (Garden Point)

IDD60701

Issued at 9:41 am CST Wednesday 5 August 2015 (issued every 10 minutes, with the page automatically refreshed every 10 minutes)

About coastal observations | Map of coastal stations | Coastal observations for NT | Marine services | Other Formats
Station Details ID: 014142 Name: PIRLANGIMPI AIRPORT Lat: -11.40 Lon: 130.42 Height: 18.3 m
Data from the previous 72 hours. | See also: Recent months at Pirlangimpi (Garden Point)
Date/Time
CST
Temp

°C
Wind Pressure Rain
since 9am
mm
Weather Cloud Vis
km
Sea
Height
m
Swell
Dir
 
Speed
knots
Gust
knots
hPa Trend Height
m
Period
s
Dir
05/09:30am 24.9 SE 6 10 1016.0 - 0.0 - - - - - - -
05/09:00am 23.5 SSE 5 9 1015.8 - 0.0 - - - - - - -
05/08:30am 22.0 SE 3 5 1015.6 - 0.0 - - - - - - -
05/08:00am 19.8 SSE 1 3 1015.3 - 0.0 - - - - - - -
05/07:30am 17.4 SE 1 2 1015.0 - 0.0 - - - - - - -
05/07:00am 17.6 ESE 2 2 1014.6 - 0.0 - - - - - - -
05/06:30am 17.6 ESE 3 4 1014.3 - 0.0 - - - - - - -
05/06:00am 17.8 ESE 2 3 1014.0 - 0.0 - - - - - - -
05/05:30am 18.4 E 2 3 1013.6 - 0.0 - - - - - - -
05/05:00am 18.6 ENE 2 3 1013.5 - 0.0 - - - - - - -
05/04:30am 18.7 ENE 2 3 1013.5 - 0.0 - - - - - - -
05/04:00am 18.7 ENE 2 3 1013.5 - 0.0 - - - - - - -
05/03:30am 18.6 ENE 2 4 1013.6 - 0.0 - - - - - - -
05/03:00am 18.3 ENE 1 3 1013.7 - 0.0 - - - - - - -
05/02:30am 18.4 ENE 1 2 1013.8 - 0.0 - - - - - - -
05/02:00am 18.6 E 1 2 1013.9 - 0.0 - - - - - - -
05/01:30am 19.1 E 1 1 1014.1 - 0.0 - - - - - - -
05/01:00am 19.1 E 1 2 1014.4 - 0.0 - - - - - - -
05/12:30am 18.9 CALM 0 0 1014.3 - 0.0 - - - - - - -
05/12:00am 19.4 CALM 0 0 1014.3 - 0.0 - - - - - - -
 
Date/Time
CST
Temp

°C
Wind Pressure Rain
since 9am
mm
Weather Cloud Vis
km
Sea
Height
m
Swell
Dir
 
Speed
knots
Gust
knots
hPa Trend Height
m
Period
s
Dir
04/11:30pm 19.9 NE 2 3 1014.3 - 0.0 - - - - - - -
04/11:00pm 19.9 NE 1 2 1014.4 - 0.0 - - - - - - -
04/10:30pm 20.2 NE 1 2 1014.5 - 0.0 - - - - - - -
04/10:00pm 20.9 NNE 2 4 1014.5 - 0.0 - - - - - - -
04/09:30pm 21.9 E 1 1 1014.0 - 0.0 - - - - - - -
04/09:00pm 23.0 SSE 3 3 1013.8 - 0.0 - - - - - - -
04/08:30pm 23.4 S 2 3 1013.6 - 0.0 - - - - - - -
04/08:00pm 24.5 E 2 3 1013.1 - 0.0 - - - - - - -
04/07:30pm 26.2 E 3 4 1012.6 - 0.0 - - - - - - -
04/07:00pm 26.8 E 2 3 1012.4 - 0.0 - - - - - - -
04/06:30pm 28.1 ENE 4 6 1012.2 - 0.0 - - - - - - -
04/06:00pm 29.0 ENE 5 8 1012.1 - 0.0 - - - - - - -
04/05:30pm 29.9 E 6 13 1011.7 - 0.0 - - - - - - -
04/05:00pm 30.3 E 9 15 1011.6 - 0.0 - - - - - - -
04/04:30pm 30.5 E 9 16 1011.9 - 0.0 - - - - - - -
04/04:00pm 31.1 E 8 15 1012.0 - 0.0 - - - - - - -
04/03:30pm 30.6 ESE 12 19 1012.2 - 0.0 - - - - - - -
04/03:00pm 31.6 ESE 10 17 1012.3 - 0.0 - - - - - - -
04/02:30pm 31.3 ESE 9 15 1012.6 - 0.0 - - - - - - -
04/02:00pm 31.2 ESE 11 20 1013.3 - 0.0 - - - - - - -
04/01:30pm 30.7 ESE 12 20 1013.9 - 0.0 - - - - - - -
04/01:00pm 31.3 ESE 11 20 1014.5 - 0.0 - - - - - - -
04/12:30pm 30.5 E 11 15 1015.0 - 0.0 - - - - - - -
04/12:00pm 30.0 ESE 9 18 1015.4 - 0.0 - - - - - - -
04/11:30am 28.9 ESE 8 14 1015.9 - 0.0 - - - - - - -
04/11:00am 28.4 ESE 9 15 1016.5 - 0.0 - - - - - - -
04/10:30am 28.1 E 8 15 1016.8 - 0.0 - - - - - - -
04/10:00am 27.2 S 6 10 1016.9 - 0.0 - - - - - - -
04/09:30am 26.1 SE 4 8 1016.6 - 0.0 - - - - - - -
04/09:00am 24.1 SSE 2 4 1016.4 - 0.0 - - - - - - -
04/08:30am 22.2 CALM 0 0 1016.1 - 0.0 - - - - - - -
04/08:00am 19.7 CALM 0 0 1015.8 - 0.0 - - - - - - -
04/07:30am 18.7 SE 1 2 1015.5 - 0.0 - - - - - - -
04/07:00am 18.7 SE 1 2 1015.3 - 0.0 - - - - - - -
04/06:30am 19.0 SE 2 2 1015.1 - 0.0 - - - - - - -
04/06:00am 18.7 SSE 1 2 1014.7 - 0.0 - - - - - - -
04/05:30am 19.1 CALM 0 0 1014.6 - 0.0 - - - - - - -
04/05:00am 19.8 CALM 0 1 1014.6 - 0.0 - - - - - - -
04/04:30am 20.4 SE 1 2 1014.8 - 0.0 - - - - - - -
04/04:00am 20.9 SE 2 2 1014.8 - 0.0 - - - - - - -
04/03:30am 20.6 SE 2 3 1014.7 - 0.0 - - - - - - -
04/03:00am 21.1 E 3 4 1014.9 - 0.0 - - - - - - -
04/02:30am 20.5 SE 2 2 1015.0 - 0.0 - - - - - - -
04/02:00am 20.0 CALM 0 2 1015.2 - 0.0 - - - - - - -
04/01:30am 20.2 CALM 0 0 1015.4 - 0.0 - - - - - - -
04/01:00am 20.5 CALM 0 0 1015.5 - 0.0 - - - - - - -
04/12:30am 21.0 CALM 0 0 1015.6 - 0.0 - - - - - - -
04/12:00am 21.3 CALM 0 0 1015.6 - 0.0 - - - - - - -
 
Date/Time
CST
Temp

°C
Wind Pressure Rain
since 9am
mm
Weather Cloud Vis
km
Sea
Height
m
Swell
Dir
 
Speed
knots
Gust
knots
hPa Trend Height
m
Period
s
Dir
03/11:30pm 21.5 CALM 0 2 1015.5 - 0.0 - - - - - - -
03/11:00pm 22.1 WNW 1 3 1015.4 - 0.0 - - - - - - -
03/10:30pm 22.2 CALM 0 0 1015.3 - 0.0 - - - - - - -
03/10:00pm 23.6 E 2 4 1014.9 - 0.0 - - - - - - -
03/09:30pm 23.9 ENE 4 7 1014.6 - 0.0 - - - - - - -
03/09:00pm 24.3 ENE 6 9 1014.3 - 0.0 - - - - - - -
03/08:30pm 24.5 ENE 6 8 1014.1 - 0.0 - - - - - - -
03/08:00pm 25.1 ENE 6 8 1013.7 - 0.0 - - - - - - -
03/07:30pm 25.9 NE 5 8 1013.3 - 0.0 - - - - - - -
03/07:00pm 27.0 NE 4 8 1013.1 - 0.0 - - - - - - -
03/06:30pm 29.0 ENE 5 8 1012.9 - 0.0 - - - - - - -
03/06:00pm 30.1 E 6 10 1012.9 - 0.0 - - - - - - -
03/05:30pm 30.5 E 7 11 1012.6 - 0.0 - - - - - - -
03/05:00pm 31.0 E 8 14 1012.5 - 0.0 - - - - - - -
03/04:30pm 31.4 E 10 16 1012.4 - 0.0 - - - - - - -
03/04:00pm 32.7 E 10 16 1012.2 - 0.0 - - - - - - -
03/03:30pm 32.8 ENE 10 17 1012.4 - 0.0 - - - - - - -
03/03:00pm 33.9 NE 10 16 1012.5 - 0.0 - - - - - - -
03/02:30pm 32.5 E 10 18 1012.7 - 0.0 - - - - - - -
03/02:00pm 33.0 E 7 14 1013.3 - 0.0 - - - - - - -
03/01:30pm 32.1 E 9 15 1013.7 - 0.0 - - - - - - -
03/01:00pm 31.9 ENE 9 16 1014.3 - 0.0 - - - - - - -
03/12:30pm 31.4 ENE 6 11 1014.9 - 0.0 - - - - - - -
03/12:00pm 31.1 ENE 5 10 1015.3 - 0.0 - - - - - - -
03/11:30am 30.5 E 6 11 1015.8 - 0.0 - - - - - - -
03/11:00am 29.8 E 6 9 1016.3 - 0.0 - - - - - - -
03/10:30am 29.2 E 6 10 1016.5 - 0.0 - - - - - - -
03/10:00am 27.5 E 7 11 1016.7 - 0.0 - - - - - - -
03/09:30am 26.8 ENE 6 10 1016.7 - 0.0 - - - - - - -
03/09:00am 25.5 E 6 11 1016.7 - 0.0 - - - - - - -
03/08:30am 24.3 ESE 4 7 1016.6 - 0.0 - - - - - - -
03/08:00am 21.9 SE 2 4 1016.3 - 0.0 - - - - - - -
03/07:30am 21.6 SE 1 2 1015.9 - 0.0 - - - - - - -
03/07:00am 21.2 CALM 0 0 1015.6 - 0.0 - - - - - - -
03/06:30am 21.3 ESE 1 2 1015.5 - 0.0 - - - - - - -
03/06:00am 21.0 SE 2 3 1015.4 - 0.0 - - - - - - -
03/05:30am 20.3 SE 1 2 1015.2 - 0.0 - - - - - - -
03/05:00am 20.6 SSE 2 3 1015.2 - 0.0 - - - - - - -
03/04:30am 20.7 CALM 0 0 1015.0 - 0.0 - - - - - - -
03/04:00am 21.2 SE 1 2 1015.0 - 0.0 - - - - - - -
03/03:30am 21.8 SSE 2 3 1015.2 - 0.0 - - - - - - -
03/03:00am 22.0 SSW 3 5 1015.3 - 0.0 - - - - - - -
03/02:30am 22.1 S 3 4 1015.2 - 0.0 - - - - - - -
03/02:00am 22.3 SSE 2 3 1015.3 - 0.0 - - - - - - -
03/01:30am 22.5 NE 5 7 1015.2 - 0.0 - - - - - - -
03/01:00am 22.6 NE 5 8 1015.3 - 0.0 - - - - - - -
03/12:30am 22.9 NE 5 7 1015.4 - 0.0 - - - - - - -
03/12:00am 23.1 ENE 5 8 1015.3 - 0.0 - - - - - - -
 
Date/Time
CST
Temp

°C
Wind Pressure Rain
since 9am
mm
Weather Cloud Vis
km
Sea
Height
m
Swell
Dir
 
Speed
knots
Gust
knots
hPa Trend Height
m
Period
s
Dir
02/11:30pm 22.9 ENE 4 7 1015.5 - 0.0 - - - - - - -
02/11:00pm 22.7 NE 4 6 1015.5 - 0.0 - - - - - - -
02/10:30pm 22.6 NE 4 5 1015.4 - 0.0 - - - - - - -
02/10:00pm 22.7 NE 3 5 1015.1 - 0.0 - - - - - - -
02/09:30pm 22.9 NE 4 6 1015.1 - 0.0 - - - - - - -
02/09:00pm 23.1 NE 4 6 1014.8 - 0.0 - - - - - - -
02/08:30pm 23.4 NE 3 6 1014.5 - 0.0 - - - - - - -
02/08:00pm 24.4 ENE 3 3 1014.1 - 0.0 - - - - - - -
02/07:30pm 25.7 ENE 3 5 1013.8 - 0.0 - - - - - - -
02/07:00pm 27.3 E 4 6 1013.4 - 0.0 - - - - - - -
02/06:30pm 28.3 E 3 5 1013.2 - 0.0 - - - - - - -
02/06:00pm 29.3 ESE 5 8 1013.2 - 0.0 - - - - - - -
02/05:30pm 30.1 ESE 8 14 1013.1 - 0.0 - - - - - - -
02/05:00pm 30.5 E 8 16 1012.9 - 0.0 - - - - - - -
02/04:30pm 30.4 ENE 7 9 1012.8 - 0.0 - - - - - - -
02/04:00pm 30.5 E 6 11 1012.7 - 0.0 - - - - - - -
02/03:30pm 31.4 E 7 12 1012.8 - 0.0 - - - - - - -
02/03:00pm 32.0 E 6 10 1013.1 - 0.0 - - - - - - -
02/02:30pm 31.0 SE 5 10 1013.5 - 0.0 - - - - - - -
02/02:00pm 31.2 ENE 7 12 1014.1 - 0.0 - - - - - - -
02/01:30pm 30.9 ENE 7 13 1014.7 - 0.0 - - - - - - -
02/01:00pm 31.1 ENE 4 9 1015.2 - 0.0 - - - - - - -
02/12:30pm 29.6 ENE 6 14 1015.7 - 0.0 - - - - - - -
02/12:00pm 29.4 ESE 6 11 1016.2 - 0.0 - - - - - - -
02/11:30am 29.3 ESE 6 10 1016.5 - 0.0 - - - - - - -
02/11:00am 28.3 E 7 11 1016.8 - 0.0 - - - - - - -
02/10:30am 27.1 E 7 10 1017.1 - 0.0 - - - - - - -
02/10:00am 26.4 ESE 9 15 1017.4 - 0.0 - - - - - - -

Other Formats:

Comma delimited format used in spreadsheet applications
http://www.bom.gov.au/fwo/IDD60701/IDD60701.94119.axf

JavaScript Object Notation format (JSON) in row-major order
http://www.bom.gov.au/fwo/IDD60701/IDD60701.94119.json